createdAt,value
2017-06-12T00:00:06.407Z,64.8
2017-06-12T00:10:06.410Z,65.4
2017-06-12T00:20:06.504Z,64.3
2017-06-12T00:30:06.401Z,64.8
2017-06-12T00:40:06.378Z,64.8
2017-06-12T00:50:06.409Z,64.8
2017-06-12T01:00:06.374Z,64.8
2017-06-12T01:10:06.603Z,64.3
2017-06-12T01:20:06.411Z,64.8
2017-06-12T01:30:06.411Z,64.3
2017-06-12T01:40:06.407Z,64.3
2017-06-12T01:50:06.471Z,64.8
2017-06-12T02:00:06.540Z,64.3
2017-06-12T02:10:06.442Z,64.3
2017-06-12T02:20:06.406Z,63.8
2017-06-12T02:30:06.440Z,63.8
2017-06-12T02:40:04.977Z,63.8
2017-06-12T02:50:06.396Z,64.3
2017-06-12T03:00:06.464Z,63.2
2017-06-12T03:10:06.413Z,63.8
2017-06-12T03:20:06.400Z,63.8
2017-06-12T03:30:06.407Z,63.8
2017-06-12T03:40:06.348Z,63.8
2017-06-12T03:50:06.594Z,63.8
2017-06-12T04:00:06.372Z,62.7
2017-06-12T04:10:06.402Z,62.7
2017-06-12T04:20:06.418Z,62.7
2017-06-12T04:30:06.463Z,62.7
2017-06-12T04:40:05.047Z,62.1
2017-06-12T04:50:06.401Z,62.1
2017-06-12T05:00:06.378Z,62.7
2017-06-12T05:10:07.871Z,62.1
2017-06-12T05:20:06.406Z,62.7
2017-06-12T05:30:06.614Z,62.7
2017-06-12T05:40:06.398Z,62.1
2017-06-12T05:50:02.346Z,62.7
2017-06-12T06:00:06.397Z,62.7
2017-06-12T06:10:06.403Z,62.7
2017-06-12T06:20:06.413Z,62.7
2017-06-12T06:30:06.401Z,62.7
2017-06-12T06:40:06.375Z,62.7
2017-06-12T06:50:06.402Z,63.2
2017-06-12T07:00:06.390Z,62.7
2017-06-12T07:10:06.406Z,62.1
2017-06-12T07:20:06.415Z,62.7
2017-06-12T07:30:06.455Z,62.7
2017-06-12T07:40:05.190Z,62.7
2017-06-12T07:50:06.416Z,62.7
2017-06-12T08:00:06.392Z,62.7
2017-06-12T08:10:06.430Z,62.7
2017-06-12T08:20:06.417Z,62.7
2017-06-12T08:30:06.401Z,62.7
2017-06-12T08:40:05.201Z,62.7
2017-06-12T08:50:06.427Z,62.7
2017-06-12T09:00:06.404Z,62.7
2017-06-12T09:10:06.407Z,62.1
2017-06-12T09:20:06.407Z,62.1
2017-06-12T09:30:06.416Z,62.7
2017-06-12T09:40:05.273Z,62.7
2017-06-12T09:50:06.405Z,62.7
2017-06-12T10:00:06.388Z,62.7
2017-06-12T10:10:06.416Z,62.7
2017-06-12T10:20:06.415Z,62.7
2017-06-12T10:30:06.400Z,62.7
2017-06-12T10:40:05.301Z,62.7
2017-06-12T10:50:06.405Z,62.7
2017-06-12T11:00:06.378Z,62.1
2017-06-12T11:10:06.437Z,62.1
2017-06-12T11:20:06.423Z,62.7
2017-06-12T11:30:06.431Z,62.7
2017-06-12T11:40:06.354Z,62.7
2017-06-12T11:50:06.416Z,62.1
2017-06-12T12:00:06.409Z,62.7
2017-06-12T12:10:05.386Z,61.6
2017-06-12T12:20:06.408Z,62.1
2017-06-12T12:30:06.413Z,62.7
2017-06-12T12:40:05.446Z,62.7
2017-06-12T12:50:06.429Z,62.7
2017-06-12T13:00:06.373Z,62.7
2017-06-12T13:10:06.405Z,62.1
2017-06-12T13:20:06.432Z,62.7
2017-06-12T13:30:06.377Z,63.2
2017-06-12T13:40:05.474Z,62.1
2017-06-12T13:50:06.406Z,61.6
2017-06-12T14:00:06.371Z,62.7
2017-06-12T14:10:06.480Z,62.7
2017-06-12T14:20:06.410Z,62.7
2017-06-12T14:30:06.411Z,63.2
2017-06-12T14:40:05.506Z,62.7
2017-06-12T14:50:06.408Z,63.2
2017-06-12T15:00:06.439Z,62.7
2017-06-12T15:10:06.404Z,62.1
2017-06-12T15:20:06.391Z,62.7
2017-06-12T15:30:06.408Z,62.7
2017-06-12T15:40:06.377Z,62.7
2017-06-12T15:50:06.409Z,62.7
2017-06-12T16:00:06.405Z,62.7
2017-06-12T16:10:06.371Z,62.7
2017-06-12T16:20:05.595Z,62.7
2017-06-12T16:30:06.421Z,62.7
2017-06-12T16:40:06.406Z,62.7
2017-06-12T16:50:06.405Z,62.7
2017-06-12T17:00:06.414Z,62.7
2017-06-12T17:10:06.390Z,62.7
2017-06-12T17:20:05.639Z,62.7
2017-06-12T17:30:06.414Z,62.1
2017-06-12T17:40:06.422Z,62.1
2017-06-12T17:50:06.421Z,62.7
2017-06-12T18:00:06.424Z,62.7
2017-06-12T18:10:06.402Z,62.7
2017-06-12T18:20:06.364Z,63.2
2017-06-12T18:30:06.419Z,62.7
2017-06-12T18:40:06.413Z,62.7
2017-06-12T18:50:06.406Z,62.1
2017-06-12T19:00:06.421Z,62.1
2017-06-12T19:10:06.416Z,61.6
2017-06-12T19:20:06.380Z,61.6
2017-06-12T19:30:06.431Z,62.1
2017-06-12T19:40:06.362Z,61.6
2017-06-12T19:50:06.376Z,62.7
2017-06-12T20:00:06.416Z,61.6
2017-06-12T20:10:06.442Z,62.1
2017-06-12T20:20:05.833Z,62.1
2017-06-12T20:30:06.370Z,61.6
2017-06-12T20:40:06.419Z,62.1
2017-06-12T20:50:06.436Z,61.6
2017-06-12T21:00:06.373Z,62.1
2017-06-12T21:10:06.411Z,62.1
2017-06-12T21:20:06.431Z,62.1
2017-06-12T21:30:06.419Z,61.6
2017-06-12T21:40:06.405Z,61.6
2017-06-12T21:50:06.412Z,61.6
2017-06-12T22:00:06.424Z,61.6
2017-06-12T22:10:06.422Z,61.6
2017-06-12T22:20:06.396Z,61.6
2017-06-12T22:30:06.380Z,61.6
2017-06-12T22:40:06.441Z,61.6
2017-06-12T22:50:06.406Z,61.6
2017-06-12T23:00:05.643Z,61.6
2017-06-12T23:10:06.406Z,61.6
2017-06-12T23:20:06.390Z,61.6
2017-06-12T23:30:06.401Z,61.6
2017-06-12T23:40:06.405Z,61.6
2017-06-12T23:50:06.135Z,61.6
